sensor_id;sensor_type;location;lat;lon;timestamp;P1;durP1;ratioP1;P2;durP2;ratioP2
35592;SDS011;64447;52.140;5.602;2023-05-10T00:01:26;28.58;;;18.85;;
35592;SDS011;64447;52.140;5.602;2023-05-10T00:03:51;29.95;;;18.67;;
35592;SDS011;64447;52.140;5.602;2023-05-10T00:06:17;33.00;;;20.65;;
35592;SDS011;64447;52.140;5.602;2023-05-10T00:08:42;29.65;;;19.58;;
35592;SDS011;64447;52.140;5.602;2023-05-10T00:11:08;32.58;;;20.00;;
35592;SDS011;64447;52.140;5.602;2023-05-10T00:13:34;33.83;;;20.55;;
35592;SDS011;64447;52.140;5.602;2023-05-10T00:15:59;31.10;;;20.50;;
35592;SDS011;64447;52.140;5.602;2023-05-10T00:21:47;35.35;;;20.23;;
35592;SDS011;64447;52.140;5.602;2023-05-10T00:24:12;36.85;;;23.15;;
35592;SDS011;64447;52.140;5.602;2023-05-10T00:26:38;35.10;;;23.15;;
35592;SDS011;64447;52.140;5.602;2023-05-10T00:29:03;39.33;;;25.00;;
35592;SDS011;64447;52.140;5.602;2023-05-10T00:31:29;42.20;;;25.65;;
35592;SDS011;64447;52.140;5.602;2023-05-10T00:37:16;47.17;;;27.17;;
35592;SDS011;64447;52.140;5.602;2023-05-10T00:39:42;49.45;;;28.35;;
35592;SDS011;64447;52.140;5.602;2023-05-10T00:42:07;50.42;;;28.98;;
35592;SDS011;64447;52.140;5.602;2023-05-10T00:44:33;42.25;;;25.55;;
35592;SDS011;64447;52.140;5.602;2023-05-10T00:46:59;52.20;;;29.83;;
35592;SDS011;64447;52.140;5.602;2023-05-10T00:49:24;46.50;;;28.20;;
35592;SDS011;64447;52.140;5.602;2023-05-10T00:51:50;57.40;;;31.35;;
35592;SDS011;64447;52.140;5.602;2023-05-10T00:54:16;57.10;;;32.03;;
35592;SDS011;64447;52.140;5.602;2023-05-10T00:56:41;54.20;;;29.48;;
35592;SDS011;64447;52.140;5.602;2023-05-10T00:59:13;54.47;;;30.35;;
35592;SDS011;64447;52.140;5.602;2023-05-10T01:01:39;55.28;;;30.52;;
35592;SDS011;64447;52.140;5.602;2023-05-10T01:07:27;60.50;;;32.55;;
35592;SDS011;64447;52.140;5.602;2023-05-10T01:09:53;58.38;;;31.60;;
35592;SDS011;64447;52.140;5.602;2023-05-10T01:12:18;66.78;;;32.67;;
35592;SDS011;64447;52.140;5.602;2023-05-10T01:14:44;63.45;;;33.30;;
35592;SDS011;64447;52.140;5.602;2023-05-10T01:17:10;67.10;;;33.83;;
35592;SDS011;64447;52.140;5.602;2023-05-10T01:19:37;69.35;;;36.30;;
35592;SDS011;64447;52.140;5.602;2023-05-10T01:33:43;77.55;;;38.28;;
35592;SDS011;64447;52.140;5.602;2023-05-10T01:41:36;84.30;;;40.58;;
35592;SDS011;64447;52.140;5.602;2023-05-10T01:44:16;84.78;;;40.88;;
35592;SDS011;64447;52.140;5.602;2023-05-10T01:50:14;76.80;;;38.10;;
35592;SDS011;64447;52.140;5.602;2023-05-10T01:52:43;79.45;;;39.03;;
35592;SDS011;64447;52.140;5.602;2023-05-10T01:55:13;81.63;;;40.90;;
35592;SDS011;64447;52.140;5.602;2023-05-10T01:57:42;81.93;;;39.75;;
35592;SDS011;64447;52.140;5.602;2023-05-10T02:00:11;92.07;;;40.38;;
35592;SDS011;64447;52.140;5.602;2023-05-10T02:06:00;83.65;;;41.30;;
35592;SDS011;64447;52.140;5.602;2023-05-10T02:08:26;85.45;;;41.33;;
35592;SDS011;64447;52.140;5.602;2023-05-10T02:10:53;81.68;;;40.80;;
35592;SDS011;64447;52.140;5.602;2023-05-10T02:13:20;85.07;;;41.53;;
35592;SDS011;64447;52.140;5.602;2023-05-10T02:15:48;80.38;;;39.13;;
35592;SDS011;64447;52.140;5.602;2023-05-10T02:21:37;89.60;;;42.40;;
35592;SDS011;64447;52.140;5.602;2023-05-10T02:24:04;80.65;;;41.22;;
35592;SDS011;64447;52.140;5.602;2023-05-10T02:26:31;80.63;;;41.60;;
35592;SDS011;64447;52.140;5.602;2023-05-10T02:28:58;79.63;;;40.10;;
35592;SDS011;64447;52.140;5.602;2023-05-10T02:31:28;86.32;;;42.08;;
35592;SDS011;64447;52.140;5.602;2023-05-10T02:37:18;81.45;;;38.95;;
35592;SDS011;64447;52.140;5.602;2023-05-10T02:39:49;78.68;;;39.30;;
35592;SDS011;64447;52.140;5.602;2023-05-10T02:42:16;78.85;;;38.53;;
35592;SDS011;64447;52.140;5.602;2023-05-10T02:44:47;72.55;;;36.72;;
35592;SDS011;64447;52.140;5.602;2023-05-10T02:47:15;80.50;;;38.88;;
35592;SDS011;64447;52.140;5.602;2023-05-10T02:49:41;82.68;;;39.40;;
35592;SDS011;64447;52.140;5.602;2023-05-10T02:52:07;77.75;;;37.58;;
35592;SDS011;64447;52.140;5.602;2023-05-10T02:54:35;76.47;;;38.55;;
35592;SDS011;64447;52.140;5.602;2023-05-10T02:57:06;75.82;;;37.85;;
35592;SDS011;64447;52.140;5.602;2023-05-10T02:59:33;81.93;;;38.92;;
35592;SDS011;64447;52.140;5.602;2023-05-10T03:01:59;73.38;;;37.20;;
35592;SDS011;64447;52.140;5.602;2023-05-10T03:07:48;75.00;;;38.22;;
35592;SDS011;64447;52.140;5.602;2023-05-10T03:10:14;77.60;;;38.08;;
35592;SDS011;64447;52.140;5.602;2023-05-10T03:12:50;80.55;;;39.88;;
35592;SDS011;64447;52.140;5.602;2023-05-10T03:18:41;82.75;;;38.78;;
35592;SDS011;64447;52.140;5.602;2023-05-10T03:21:22;82.55;;;39.33;;
35592;SDS011;64447;52.140;5.602;2023-05-10T03:23:51;89.07;;;40.88;;
35592;SDS011;64447;52.140;5.602;2023-05-10T03:26:28;82.80;;;39.67;;
35592;SDS011;64447;52.140;5.602;2023-05-10T03:28:55;89.25;;;41.03;;
35592;SDS011;64447;52.140;5.602;2023-05-10T03:31:20;89.82;;;40.33;;
35592;SDS011;64447;52.140;5.602;2023-05-10T03:33:49;90.97;;;41.05;;
35592;SDS011;64447;52.140;5.602;2023-05-10T03:36:16;92.78;;;42.08;;
35592;SDS011;64447;52.140;5.602;2023-05-10T03:38:43;101.82;;;42.08;;
35592;SDS011;64447;52.140;5.602;2023-05-10T03:41:08;100.18;;;43.03;;
35592;SDS011;64447;52.140;5.602;2023-05-10T03:43:34;108.55;;;45.05;;
35592;SDS011;64447;52.140;5.602;2023-05-10T03:46:03;116.10;;;47.50;;
35592;SDS011;64447;52.140;5.602;2023-05-10T03:48:29;102.55;;;41.00;;
35592;SDS011;64447;52.140;5.602;2023-05-10T03:50:55;99.10;;;42.35;;
35592;SDS011;64447;52.140;5.602;2023-05-10T03:53:21;110.75;;;43.65;;
35592;SDS011;64447;52.140;5.602;2023-05-10T03:55:48;110.35;;;45.28;;
35592;SDS011;64447;52.140;5.602;2023-05-10T03:58:13;115.55;;;44.35;;
35592;SDS011;64447;52.140;5.602;2023-05-10T04:00:39;118.10;;;45.40;;
35592;SDS011;64447;52.140;5.602;2023-05-10T04:03:11;122.15;;;44.85;;
35592;SDS011;64447;52.140;5.602;2023-05-10T04:05:37;124.15;;;46.45;;
35592;SDS011;64447;52.140;5.602;2023-05-10T04:08:03;110.72;;;41.78;;
35592;SDS011;64447;52.140;5.602;2023-05-10T04:10:29;124.18;;;46.38;;
35592;SDS011;64447;52.140;5.602;2023-05-10T04:12:55;135.63;;;47.13;;
35592;SDS011;64447;52.140;5.602;2023-05-10T04:15:20;124.30;;;46.22;;
35592;SDS011;64447;52.140;5.602;2023-05-10T04:17:46;125.65;;;44.80;;
35592;SDS011;64447;52.140;5.602;2023-05-10T04:20:12;124.03;;;45.58;;
35592;SDS011;64447;52.140;5.602;2023-05-10T04:22:38;112.45;;;43.38;;
35592;SDS011;64447;52.140;5.602;2023-05-10T04:25:04;119.68;;;44.60;;
35592;SDS011;64447;52.140;5.602;2023-05-10T04:27:30;123.35;;;47.38;;
35592;SDS011;64447;52.140;5.602;2023-05-10T04:29:56;119.82;;;44.95;;
35592;SDS011;64447;52.140;5.602;2023-05-10T04:32:21;127.60;;;46.00;;
35592;SDS011;64447;52.140;5.602;2023-05-10T04:38:09;120.10;;;45.17;;
35592;SDS011;64447;52.140;5.602;2023-05-10T04:40:35;111.03;;;43.72;;
35592;SDS011;64447;52.140;5.602;2023-05-10T04:43:00;122.03;;;42.88;;
35592;SDS011;64447;52.140;5.602;2023-05-10T04:45:26;103.15;;;42.53;;
35592;SDS011;64447;52.140;5.602;2023-05-10T04:47:52;114.53;;;43.03;;
35592;SDS011;64447;52.140;5.602;2023-05-10T04:50:17;114.93;;;43.20;;
35592;SDS011;64447;52.140;5.602;2023-05-10T04:52:43;101.82;;;40.53;;
35592;SDS011;64447;52.140;5.602;2023-05-10T04:55:08;105.45;;;40.42;;
35592;SDS011;64447;52.140;5.602;2023-05-10T04:57:34;111.20;;;40.85;;
35592;SDS011;64447;52.140;5.602;2023-05-10T05:00:00;91.85;;;37.53;;
35592;SDS011;64447;52.140;5.602;2023-05-10T05:02:26;103.35;;;40.13;;
35592;SDS011;64447;52.140;5.602;2023-05-10T05:08:13;96.30;;;38.30;;
35592;SDS011;64447;52.140;5.602;2023-05-10T05:10:39;101.55;;;40.35;;
35592;SDS011;64447;52.140;5.602;2023-05-10T05:13:05;97.82;;;38.85;;
35592;SDS011;64447;52.140;5.602;2023-05-10T05:15:30;114.18;;;42.03;;
35592;SDS011;64447;52.140;5.602;2023-05-10T05:17:56;96.65;;;38.30;;
35592;SDS011;64447;52.140;5.602;2023-05-10T05:20:22;100.82;;;40.10;;
35592;SDS011;64447;52.140;5.602;2023-05-10T05:22:47;103.10;;;41.20;;
35592;SDS011;64447;52.140;5.602;2023-05-10T05:25:13;107.85;;;42.42;;
35592;SDS011;64447;52.140;5.602;2023-05-10T05:27:40;105.68;;;40.13;;
35592;SDS011;64447;52.140;5.602;2023-05-10T05:30:05;105.57;;;39.50;;
35592;SDS011;64447;52.140;5.602;2023-05-10T05:32:31;104.10;;;41.03;;
35592;SDS011;64447;52.140;5.602;2023-05-10T05:38:19;101.03;;;38.95;;
35592;SDS011;64447;52.140;5.602;2023-05-10T05:40:45;115.07;;;41.95;;
35592;SDS011;64447;52.140;5.602;2023-05-10T05:43:10;115.90;;;41.88;;
35592;SDS011;64447;52.140;5.602;2023-05-10T05:45:36;114.20;;;41.38;;
35592;SDS011;64447;52.140;5.602;2023-05-10T05:48:02;110.47;;;41.72;;
35592;SDS011;64447;52.140;5.602;2023-05-10T05:50:28;115.18;;;43.22;;
35592;SDS011;64447;52.140;5.602;2023-05-10T05:52:53;114.40;;;42.33;;
35592;SDS011;64447;52.140;5.602;2023-05-10T05:55:19;108.20;;;40.28;;
35592;SDS011;64447;52.140;5.602;2023-05-10T05:57:44;117.00;;;41.10;;
35592;SDS011;64447;52.140;5.602;2023-05-10T06:00:10;122.03;;;43.17;;
35592;SDS011;64447;52.140;5.602;2023-05-10T06:02:36;114.63;;;42.53;;
35592;SDS011;64447;52.140;5.602;2023-05-10T06:08:23;112.97;;;40.65;;
35592;SDS011;64447;52.140;5.602;2023-05-10T06:10:49;105.82;;;40.55;;
35592;SDS011;64447;52.140;5.602;2023-05-10T06:13:14;119.65;;;41.67;;
35592;SDS011;64447;52.140;5.602;2023-05-10T06:15:40;113.97;;;42.70;;
35592;SDS011;64447;52.140;5.602;2023-05-10T06:18:06;102.32;;;41.53;;
35592;SDS011;64447;52.140;5.602;2023-05-10T06:23:53;99.93;;;43.15;;
35592;SDS011;64447;52.140;5.602;2023-05-10T06:26:18;98.78;;;43.53;;
35592;SDS011;64447;52.140;5.602;2023-05-10T06:28:45;100.32;;;44.20;;
35592;SDS011;64447;52.140;5.602;2023-05-10T06:31:11;94.25;;;41.35;;
35592;SDS011;64447;52.140;5.602;2023-05-10T06:33:37;102.18;;;42.47;;
35592;SDS011;64447;52.140;5.602;2023-05-10T06:36:03;99.05;;;42.28;;
35592;SDS011;64447;52.140;5.602;2023-05-10T06:38:28;95.40;;;43.70;;
35592;SDS011;64447;52.140;5.602;2023-05-10T06:40:54;93.93;;;40.95;;
35592;SDS011;64447;52.140;5.602;2023-05-10T06:43:20;85.10;;;39.47;;
35592;SDS011;64447;52.140;5.602;2023-05-10T06:45:45;86.50;;;38.78;;
35592;SDS011;64447;52.140;5.602;2023-05-10T06:48:12;81.80;;;38.50;;
35592;SDS011;64447;52.140;5.602;2023-05-10T06:53:59;79.45;;;37.25;;
35592;SDS011;64447;52.140;5.602;2023-05-10T06:56:25;88.45;;;37.92;;
35592;SDS011;64447;52.140;5.602;2023-05-10T06:58:51;78.43;;;36.53;;
35592;SDS011;64447;52.140;5.602;2023-05-10T07:01:16;76.65;;;34.85;;
35592;SDS011;64447;52.140;5.602;2023-05-10T07:03:42;70.53;;;34.97;;
35592;SDS011;64447;52.140;5.602;2023-05-10T07:06:07;71.95;;;34.65;;
35592;SDS011;64447;52.140;5.602;2023-05-10T07:08:33;65.63;;;31.65;;
35592;SDS011;64447;52.140;5.602;2023-05-10T07:11:00;59.85;;;30.27;;
35592;SDS011;64447;52.140;5.602;2023-05-10T07:13:30;57.10;;;28.83;;
35592;SDS011;64447;52.140;5.602;2023-05-10T07:15:56;54.38;;;28.17;;
35592;SDS011;64447;52.140;5.602;2023-05-10T07:18:22;52.00;;;26.20;;
35592;SDS011;64447;52.140;5.602;2023-05-10T07:24:09;42.03;;;23.17;;
35592;SDS011;64447;52.140;5.602;2023-05-10T07:26:35;46.80;;;23.80;;
35592;SDS011;64447;52.140;5.602;2023-05-10T07:29:00;42.53;;;22.63;;
35592;SDS011;64447;52.140;5.602;2023-05-10T07:31:26;40.35;;;22.30;;
35592;SDS011;64447;52.140;5.602;2023-05-10T07:33:52;43.55;;;22.42;;
35592;SDS011;64447;52.140;5.602;2023-05-10T07:36:17;38.45;;;21.52;;
35592;SDS011;64447;52.140;5.602;2023-05-10T07:38:43;39.80;;;22.73;;
35592;SDS011;64447;52.140;5.602;2023-05-10T07:41:09;38.72;;;21.00;;
35592;SDS011;64447;52.140;5.602;2023-05-10T07:43:35;35.75;;;19.80;;
35592;SDS011;64447;52.140;5.602;2023-05-10T07:46:01;35.60;;;19.98;;
35592;SDS011;64447;52.140;5.602;2023-05-10T07:48:27;32.40;;;18.52;;
35592;SDS011;64447;52.140;5.602;2023-05-10T07:54:14;34.80;;;18.52;;
35592;SDS011;64447;52.140;5.602;2023-05-10T07:56:40;28.75;;;15.82;;
35592;SDS011;64447;52.140;5.602;2023-05-10T07:59:13;30.38;;;16.38;;
35592;SDS011;64447;52.140;5.602;2023-05-10T08:01:41;27.55;;;16.20;;
35592;SDS011;64447;52.140;5.602;2023-05-10T08:04:07;28.88;;;15.43;;
35592;SDS011;64447;52.140;5.602;2023-05-10T08:06:34;31.30;;;15.00;;
35592;SDS011;64447;52.140;5.602;2023-05-10T08:08:59;26.55;;;15.70;;
35592;SDS011;64447;52.140;5.602;2023-05-10T08:11:25;28.90;;;15.75;;
35592;SDS011;64447;52.140;5.602;2023-05-10T08:13:52;27.17;;;15.38;;
35592;SDS011;64447;52.140;5.602;2023-05-10T08:16:18;21.83;;;13.20;;
35592;SDS011;64447;52.140;5.602;2023-05-10T08:18:45;24.38;;;16.20;;
35592;SDS011;64447;52.140;5.602;2023-05-10T08:21:11;27.42;;;15.27;;
35592;SDS011;64447;52.140;5.602;2023-05-10T08:23:37;28.13;;;15.32;;
35592;SDS011;64447;52.140;5.602;2023-05-10T08:26:03;26.17;;;15.10;;
35592;SDS011;64447;52.140;5.602;2023-05-10T08:28:28;26.40;;;15.52;;
35592;SDS011;64447;52.140;5.602;2023-05-10T08:30:54;25.92;;;14.75;;
35592;SDS011;64447;52.140;5.602;2023-05-10T08:33:20;22.98;;;14.15;;
35592;SDS011;64447;52.140;5.602;2023-05-10T08:39:07;20.88;;;12.45;;
35592;SDS011;64447;52.140;5.602;2023-05-10T08:41:34;22.60;;;13.60;;
35592;SDS011;64447;52.140;5.602;2023-05-10T08:44:03;23.17;;;12.95;;
35592;SDS011;64447;52.140;5.602;2023-05-10T08:46:30;22.92;;;13.18;;
35592;SDS011;64447;52.140;5.602;2023-05-10T08:48:58;22.20;;;14.00;;
35592;SDS011;64447;52.140;5.602;2023-05-10T08:51:27;19.88;;;13.25;;
35592;SDS011;64447;52.140;5.602;2023-05-10T08:54:00;24.80;;;13.90;;
35592;SDS011;64447;52.140;5.602;2023-05-10T08:56:27;19.75;;;13.20;;
35592;SDS011;64447;52.140;5.602;2023-05-10T08:58:53;18.63;;;13.13;;
35592;SDS011;64447;52.140;5.602;2023-05-10T09:01:19;18.45;;;12.43;;
35592;SDS011;64447;52.140;5.602;2023-05-10T09:03:46;22.42;;;14.13;;
35592;SDS011;64447;52.140;5.602;2023-05-10T09:09:34;23.40;;;14.68;;
35592;SDS011;64447;52.140;5.602;2023-05-10T09:12:01;24.48;;;14.75;;
35592;SDS011;64447;52.140;5.602;2023-05-10T09:14:26;22.70;;;14.35;;
35592;SDS011;64447;52.140;5.602;2023-05-10T09:16:52;20.60;;;13.93;;
35592;SDS011;64447;52.140;5.602;2023-05-10T09:19:20;23.13;;;15.48;;
35592;SDS011;64447;52.140;5.602;2023-05-10T09:21:45;19.10;;;13.23;;
35592;SDS011;64447;52.140;5.602;2023-05-10T09:24:11;22.50;;;14.00;;
35592;SDS011;64447;52.140;5.602;2023-05-10T09:26:45;21.35;;;13.15;;
35592;SDS011;64447;52.140;5.602;2023-05-10T09:29:14;20.42;;;13.80;;
35592;SDS011;64447;52.140;5.602;2023-05-10T09:31:49;19.80;;;12.57;;
35592;SDS011;64447;52.140;5.602;2023-05-10T09:34:17;20.15;;;13.00;;
35592;SDS011;64447;52.140;5.602;2023-05-10T09:36:57;19.77;;;12.98;;
35592;SDS011;64447;52.140;5.602;2023-05-10T09:39:32;19.30;;;12.27;;
35592;SDS011;64447;52.140;5.602;2023-05-10T09:41:59;18.27;;;12.30;;
35592;SDS011;64447;52.140;5.602;2023-05-10T09:44:28;18.67;;;12.05;;
35592;SDS011;64447;52.140;5.602;2023-05-10T09:46:54;22.30;;;13.63;;
35592;SDS011;64447;52.140;5.602;2023-05-10T09:49:20;20.48;;;13.23;;
35592;SDS011;64447;52.140;5.602;2023-05-10T09:51:46;20.98;;;12.80;;
35592;SDS011;64447;52.140;5.602;2023-05-10T09:54:14;18.90;;;12.70;;
35592;SDS011;64447;52.140;5.602;2023-05-10T09:56:40;19.35;;;12.93;;
35592;SDS011;64447;52.140;5.602;2023-05-10T09:59:07;18.42;;;12.52;;
35592;SDS011;64447;52.140;5.602;2023-05-10T10:01:36;17.42;;;11.80;;
35592;SDS011;64447;52.140;5.602;2023-05-10T10:04:05;13.70;;;8.02;;
35592;SDS011;64447;52.140;5.602;2023-05-10T10:09:54;13.93;;;9.60;;
35592;SDS011;64447;52.140;5.602;2023-05-10T10:12:20;13.70;;;9.52;;
35592;SDS011;64447;52.140;5.602;2023-05-10T10:14:46;12.13;;;8.73;;
35592;SDS011;64447;52.140;5.602;2023-05-10T10:17:13;10.15;;;7.88;;
35592;SDS011;64447;52.140;5.602;2023-05-10T10:19:39;10.43;;;7.43;;
35592;SDS011;64447;52.140;5.602;2023-05-10T10:22:06;11.90;;;8.43;;
35592;SDS011;64447;52.140;5.602;2023-05-10T10:24:32;10.35;;;7.80;;
35592;SDS011;64447;52.140;5.602;2023-05-10T10:27:03;10.45;;;7.55;;
35592;SDS011;64447;52.140;5.602;2023-05-10T10:29:48;10.82;;;7.25;;
35592;SDS011;64447;52.140;5.602;2023-05-10T10:32:30;10.45;;;6.75;;
35592;SDS011;64447;52.140;5.602;2023-05-10T10:34:58;12.40;;;8.02;;
35592;SDS011;64447;52.140;5.602;2023-05-10T10:37:24;10.52;;;7.82;;
35592;SDS011;64447;52.140;5.602;2023-05-10T10:40:28;9.70;;;5.95;;
35592;SDS011;64447;52.140;5.602;2023-05-10T10:42:55;7.78;;;5.70;;
35592;SDS011;64447;52.140;5.602;2023-05-10T10:45:21;8.27;;;6.00;;
35592;SDS011;64447;52.140;5.602;2023-05-10T10:47:48;10.63;;;6.22;;
35592;SDS011;64447;52.140;5.602;2023-05-10T10:50:18;9.55;;;6.63;;
35592;SDS011;64447;52.140;5.602;2023-05-10T10:52:43;11.68;;;7.15;;
35592;SDS011;64447;52.140;5.602;2023-05-10T10:55:13;12.73;;;6.78;;
35592;SDS011;64447;52.140;5.602;2023-05-10T11:03:03;8.07;;;5.45;;
35592;SDS011;64447;52.140;5.602;2023-05-10T11:08:13;10.23;;;6.65;;
35592;SDS011;64447;52.140;5.602;2023-05-10T11:13:43;10.82;;;6.53;;
35592;SDS011;64447;52.140;5.602;2023-05-10T11:16:22;8.65;;;6.18;;
35592;SDS011;64447;52.140;5.602;2023-05-10T11:19:02;11.02;;;6.55;;
35592;SDS011;64447;52.140;5.602;2023-05-10T11:21:30;13.80;;;7.82;;
35592;SDS011;64447;52.140;5.602;2023-05-10T11:23:58;11.40;;;7.55;;
35592;SDS011;64447;52.140;5.602;2023-05-10T11:26:25;11.80;;;8.60;;
35592;SDS011;64447;52.140;5.602;2023-05-10T11:29:00;13.63;;;8.82;;
35592;SDS011;64447;52.140;5.602;2023-05-10T11:31:27;14.88;;;8.70;;
35592;SDS011;64447;52.140;5.602;2023-05-10T11:33:54;13.23;;;9.13;;
35592;SDS011;64447;52.140;5.602;2023-05-10T11:36:25;15.32;;;9.88;;
35592;SDS011;64447;52.140;5.602;2023-05-10T11:38:53;14.00;;;9.32;;
35592;SDS011;64447;52.140;5.602;2023-05-10T11:41:19;13.25;;;9.23;;
35592;SDS011;64447;52.140;5.602;2023-05-10T11:43:52;11.35;;;7.90;;
35592;SDS011;64447;52.140;5.602;2023-05-10T11:46:19;11.32;;;8.70;;
35592;SDS011;64447;52.140;5.602;2023-05-10T11:48:51;8.88;;;7.13;;
35592;SDS011;64447;52.140;5.602;2023-05-10T11:51:21;10.65;;;7.78;;
35592;SDS011;64447;52.140;5.602;2023-05-10T11:53:49;10.95;;;8.32;;
35592;SDS011;64447;52.140;5.602;2023-05-10T11:56:19;13.65;;;8.13;;
35592;SDS011;64447;52.140;5.602;2023-05-10T11:58:52;11.90;;;7.95;;
35592;SDS011;64447;52.140;5.602;2023-05-10T12:01:22;12.02;;;7.55;;
35592;SDS011;64447;52.140;5.602;2023-05-10T12:03:51;11.10;;;7.90;;
35592;SDS011;64447;52.140;5.602;2023-05-10T12:06:19;10.35;;;6.90;;
35592;SDS011;64447;52.140;5.602;2023-05-10T12:08:46;9.52;;;6.93;;
35592;SDS011;64447;52.140;5.602;2023-05-10T12:11:12;10.25;;;6.65;;
35592;SDS011;64447;52.140;5.602;2023-05-10T12:13:40;10.32;;;7.53;;
35592;SDS011;64447;52.140;5.602;2023-05-10T12:16:14;10.57;;;7.03;;
35592;SDS011;64447;52.140;5.602;2023-05-10T12:18:40;10.18;;;7.40;;
35592;SDS011;64447;52.140;5.602;2023-05-10T12:21:07;12.38;;;7.53;;
35592;SDS011;64447;52.140;5.602;2023-05-10T12:23:36;11.00;;;7.72;;
35592;SDS011;64447;52.140;5.602;2023-05-10T12:26:02;10.77;;;7.97;;
35592;SDS011;64447;52.140;5.602;2023-05-10T12:28:31;12.10;;;7.50;;
35592;SDS011;64447;52.140;5.602;2023-05-10T12:30:58;11.35;;;7.68;;
35592;SDS011;64447;52.140;5.602;2023-05-10T12:33:24;8.80;;;6.15;;
35592;SDS011;64447;52.140;5.602;2023-05-10T12:35:51;8.15;;;6.15;;
35592;SDS011;64447;52.140;5.602;2023-05-10T12:41:06;9.63;;;5.90;;
35592;SDS011;64447;52.140;5.602;2023-05-10T12:43:33;7.57;;;6.15;;
35592;SDS011;64447;52.140;5.602;2023-05-10T12:46:09;10.20;;;6.25;;
35592;SDS011;64447;52.140;5.602;2023-05-10T12:48:39;10.02;;;6.80;;
35592;SDS011;64447;52.140;5.602;2023-05-10T12:51:06;8.02;;;5.70;;
35592;SDS011;64447;52.140;5.602;2023-05-10T12:53:36;8.77;;;5.63;;
35592;SDS011;64447;52.140;5.602;2023-05-10T12:56:03;8.07;;;5.72;;
35592;SDS011;64447;52.140;5.602;2023-05-10T12:58:28;6.20;;;5.00;;
35592;SDS011;64447;52.140;5.602;2023-05-10T13:00:54;8.18;;;5.03;;
35592;SDS011;64447;52.140;5.602;2023-05-10T13:03:21;6.30;;;5.65;;
35592;SDS011;64447;52.140;5.602;2023-05-10T13:05:47;6.97;;;4.80;;
35592;SDS011;64447;52.140;5.602;2023-05-10T13:08:12;6.22;;;4.82;;
35592;SDS011;64447;52.140;5.602;2023-05-10T13:10:38;7.90;;;5.28;;
35592;SDS011;64447;52.140;5.602;2023-05-10T13:13:04;8.00;;;3.97;;
35592;SDS011;64447;52.140;5.602;2023-05-10T13:15:30;6.20;;;4.57;;
35592;SDS011;64447;52.140;5.602;2023-05-10T13:17:55;6.53;;;5.03;;
35592;SDS011;64447;52.140;5.602;2023-05-10T13:20:21;7.65;;;5.30;;
35592;SDS011;64447;52.140;5.602;2023-05-10T13:26:08;7.55;;;4.43;;
35592;SDS011;64447;52.140;5.602;2023-05-10T13:28:34;6.47;;;4.07;;
35592;SDS011;64447;52.140;5.602;2023-05-10T13:31:00;6.18;;;4.05;;
35592;SDS011;64447;52.140;5.602;2023-05-10T13:33:25;12.00;;;5.53;;
35592;SDS011;64447;52.140;5.602;2023-05-10T13:35:51;6.97;;;4.53;;
35592;SDS011;64447;52.140;5.602;2023-05-10T13:38:16;5.88;;;3.50;;
35592;SDS011;64447;52.140;5.602;2023-05-10T13:40:42;5.40;;;3.65;;
35592;SDS011;64447;52.140;5.602;2023-05-10T13:43:07;7.75;;;3.90;;
35592;SDS011;64447;52.140;5.602;2023-05-10T13:45:33;5.68;;;4.00;;
35592;SDS011;64447;52.140;5.602;2023-05-10T13:47:59;5.50;;;4.10;;
35592;SDS011;64447;52.140;5.602;2023-05-10T13:50:24;5.35;;;3.50;;
35592;SDS011;64447;52.140;5.602;2023-05-10T13:56:13;9.93;;;6.75;;
35592;SDS011;64447;52.140;5.602;2023-05-10T13:58:39;10.10;;;6.78;;
35592;SDS011;64447;52.140;5.602;2023-05-10T14:01:04;10.77;;;7.75;;
35592;SDS011;64447;52.140;5.602;2023-05-10T14:03:30;12.40;;;7.93;;
35592;SDS011;64447;52.140;5.602;2023-05-10T14:05:56;12.38;;;7.20;;
35592;SDS011;64447;52.140;5.602;2023-05-10T14:08:21;9.68;;;6.35;;
35592;SDS011;64447;52.140;5.602;2023-05-10T14:10:47;7.28;;;4.80;;
35592;SDS011;64447;52.140;5.602;2023-05-10T14:13:13;9.23;;;6.20;;
35592;SDS011;64447;52.140;5.602;2023-05-10T14:15:40;7.93;;;5.18;;
35592;SDS011;64447;52.140;5.602;2023-05-10T14:18:06;7.72;;;5.32;;
35592;SDS011;64447;52.140;5.602;2023-05-10T14:20:31;7.68;;;5.10;;
35592;SDS011;64447;52.140;5.602;2023-05-10T14:26:20;5.80;;;4.10;;
35592;SDS011;64447;52.140;5.602;2023-05-10T14:28:46;5.05;;;3.97;;
35592;SDS011;64447;52.140;5.602;2023-05-10T14:31:12;10.43;;;5.07;;
35592;SDS011;64447;52.140;5.602;2023-05-10T14:33:37;9.88;;;5.13;;
35592;SDS011;64447;52.140;5.602;2023-05-10T14:36:03;7.10;;;5.20;;
35592;SDS011;64447;52.140;5.602;2023-05-10T14:38:29;8.20;;;5.63;;
35592;SDS011;64447;52.140;5.602;2023-05-10T14:40:54;8.63;;;6.47;;
35592;SDS011;64447;52.140;5.602;2023-05-10T14:43:20;10.95;;;5.90;;
35592;SDS011;64447;52.140;5.602;2023-05-10T14:45:46;8.10;;;4.90;;
35592;SDS011;64447;52.140;5.602;2023-05-10T14:48:12;7.93;;;5.35;;
35592;SDS011;64447;52.140;5.602;2023-05-10T14:50:42;7.93;;;5.30;;
35592;SDS011;64447;52.140;5.602;2023-05-10T14:56:30;9.48;;;6.40;;
35592;SDS011;64447;52.140;5.602;2023-05-10T14:58:56;11.45;;;6.50;;
35592;SDS011;64447;52.140;5.602;2023-05-10T15:01:21;13.60;;;7.15;;
35592;SDS011;64447;52.140;5.602;2023-05-10T15:03:47;10.68;;;7.18;;
35592;SDS011;64447;52.140;5.602;2023-05-10T15:06:14;11.10;;;6.97;;
35592;SDS011;64447;52.140;5.602;2023-05-10T15:08:40;13.27;;;7.65;;
35592;SDS011;64447;52.140;5.602;2023-05-10T15:11:06;10.07;;;7.80;;
35592;SDS011;64447;52.140;5.602;2023-05-10T15:13:32;13.18;;;7.70;;
35592;SDS011;64447;52.140;5.602;2023-05-10T15:15:57;11.05;;;7.22;;
35592;SDS011;64447;52.140;5.602;2023-05-10T15:18:23;9.35;;;6.10;;
35592;SDS011;64447;52.140;5.602;2023-05-10T15:20:48;10.05;;;6.53;;
35592;SDS011;64447;52.140;5.602;2023-05-10T15:26:36;15.00;;;8.30;;
35592;SDS011;64447;52.140;5.602;2023-05-10T15:29:02;16.20;;;9.05;;
35592;SDS011;64447;52.140;5.602;2023-05-10T15:31:27;14.27;;;9.40;;
35592;SDS011;64447;52.140;5.602;2023-05-10T15:33:56;14.85;;;9.25;;
35592;SDS011;64447;52.140;5.602;2023-05-10T15:36:24;14.20;;;8.63;;
35592;SDS011;64447;52.140;5.602;2023-05-10T15:38:49;15.45;;;9.93;;
35592;SDS011;64447;52.140;5.602;2023-05-10T15:41:15;19.02;;;10.15;;
35592;SDS011;64447;52.140;5.602;2023-05-10T15:43:41;16.63;;;9.20;;
35592;SDS011;64447;52.140;5.602;2023-05-10T15:46:06;16.75;;;9.43;;
35592;SDS011;64447;52.140;5.602;2023-05-10T15:48:32;14.50;;;9.77;;
35592;SDS011;64447;52.140;5.602;2023-05-10T15:50:57;16.58;;;9.77;;
35592;SDS011;64447;52.140;5.602;2023-05-10T15:56:45;15.02;;;9.85;;
35592;SDS011;64447;52.140;5.602;2023-05-10T15:59:11;15.65;;;9.30;;
35592;SDS011;64447;52.140;5.602;2023-05-10T16:01:37;15.43;;;10.25;;
35592;SDS011;64447;52.140;5.602;2023-05-10T16:04:02;15.68;;;9.88;;
35592;SDS011;64447;52.140;5.602;2023-05-10T16:06:28;16.92;;;10.50;;
35592;SDS011;64447;52.140;5.602;2023-05-10T16:12:17;18.15;;;10.40;;
35592;SDS011;64447;52.140;5.602;2023-05-10T16:14:42;17.85;;;10.52;;
35592;SDS011;64447;52.140;5.602;2023-05-10T16:17:08;17.00;;;10.70;;
35592;SDS011;64447;52.140;5.602;2023-05-10T16:19:34;16.23;;;10.88;;
35592;SDS011;64447;52.140;5.602;2023-05-10T16:21:59;18.90;;;11.05;;
35592;SDS011;64447;52.140;5.602;2023-05-10T16:24:25;17.73;;;11.15;;
35592;SDS011;64447;52.140;5.602;2023-05-10T16:26:51;18.75;;;11.35;;